Time,TemperatureF,DewpointF,PressureIn,WindDirection,WindDirectionDegrees,WindSpeedMPH,WindSpeedGustMPH,Humidity,HourlyPrecipIn,Conditions,Clouds,dailyrainin,SolarRadiationWatts/m^2,SoftwareType,DateUTC
2013-02-28 00:01:00,38.0,1.0,-100.00,North,2,15.0,24.0,20,0.00,,,0.00,2.000000,,2013-02-28 08:01:00,
2013-02-28 00:11:00,38.0,1.0,-100.00,North,2,15.0,24.0,20,0.00,,,0.00,2.000000,,2013-02-28 08:11:00,
2013-02-28 00:42:00,36.0,1.0,-100.00,North,2,14.0,22.0,22,0.00,,,0.00,3.000000,,2013-02-28 08:42:00,
2013-02-28 00:53:00,36.0,1.0,-100.00,North,2,14.0,22.0,22,0.00,,,0.00,3.000000,,2013-02-28 08:53:00,
2013-02-28 01:03:00,36.0,1.0,-100.00,North,2,14.0,22.0,22,0.00,,,0.00,3.000000,,2013-02-28 09:03:00,
2013-02-28 01:11:00,36.0,1.0,-100.00,North,2,14.0,22.0,22,0.00,,,0.00,3.000000,,2013-02-28 09:11:00,
2013-02-28 01:42:00,37.0,1.0,-100.00,North,2,18.0,22.0,21,0.00,,,-99.99,3.000000,,2013-02-28 09:42:00,
2013-02-28 01:52:00,37.0,1.0,-100.00,North,2,18.0,22.0,21,0.00,,,-99.99,3.000000,,2013-02-28 09:52:00,
2013-02-28 02:01:00,37.0,1.0,-100.00,North,2,18.0,22.0,21,0.00,,,-99.99,3.000000,,2013-02-28 10:01:00,
2013-02-28 02:11:00,37.0,1.0,-100.00,North,2,18.0,22.0,21,0.00,,,-99.99,3.000000,,2013-02-28 10:11:00,
2013-02-28 02:42:00,37.0,0.0,-100.00,North,2,15.0,23.0,20,0.00,,,0.00,2.000000,,2013-02-28 10:42:00,
2013-02-28 02:52:00,37.0,0.0,-100.00,North,2,15.0,23.0,20,0.00,,,0.00,2.000000,,2013-02-28 10:52:00,
2013-02-28 03:01:00,37.0,0.0,-100.00,North,2,15.0,23.0,20,0.00,,,0.00,2.000000,,2013-02-28 11:01:00,
2013-02-28 03:11:00,37.0,0.0,-100.00,North,2,15.0,23.0,20,0.00,,,0.00,2.000000,,2013-02-28 11:11:00,
2013-02-28 03:32:00,38.0,1.0,-100.00,North,2,14.0,20.0,20,0.00,,,0.00,3.000000,,2013-02-28 11:32:00,
2013-02-28 03:42:00,38.0,1.0,-100.00,North,2,14.0,20.0,20,0.00,,,0.00,3.000000,,2013-02-28 11:42:00,
2013-02-28 03:52:00,38.0,1.0,-100.00,North,2,14.0,20.0,20,0.00,,,0.00,3.000000,,2013-02-28 11:52:00,
2013-02-28 04:01:00,38.0,1.0,-100.00,North,2,14.0,20.0,20,0.00,,,0.00,3.000000,,2013-02-28 12:01:00,
2013-02-28 04:11:00,38.0,1.0,-100.00,North,2,14.0,20.0,20,0.00,,,0.00,3.000000,,2013-02-28 12:11:00,
2013-02-28 04:32:00,38.0,-1.0,-100.00,North,2,15.0,18.0,19,0.00,,,0.00,2.000000,,2013-02-28 12:32:00,
2013-02-28 04:42:00,38.0,-1.0,-100.00,North,2,15.0,18.0,19,0.00,,,0.00,2.000000,,2013-02-28 12:42:00,
2013-02-28 04:52:00,38.0,-1.0,-100.00,North,2,15.0,18.0,19,0.00,,,0.00,2.000000,,2013-02-28 12:52:00,
2013-02-28 05:01:00,38.0,-1.0,-100.00,North,2,15.0,18.0,19,0.00,,,0.00,2.000000,,2013-02-28 13:01:00,
2013-02-28 05:11:00,38.0,-1.0,-100.00,North,2,15.0,18.0,19,0.00,,,0.00,2.000000,,2013-02-28 13:11:00,
2013-02-28 05:42:00,37.0,2.0,-100.00,North,2,17.0,22.0,22,0.00,,,0.00,2.000000,,2013-02-28 13:42:00,
2013-02-28 05:52:00,37.0,2.0,-100.00,North,2,17.0,22.0,22,0.00,,,0.00,2.000000,,2013-02-28 13:52:00,
2013-02-28 06:01:00,37.0,2.0,-100.00,North,2,17.0,22.0,22,0.00,,,0.00,2.000000,,2013-02-28 14:01:00,
2013-02-28 06:11:00,37.0,2.0,-100.00,North,2,17.0,22.0,22,0.00,,,0.00,2.000000,,2013-02-28 14:11:00,
2013-02-28 06:32:00,38.0,1.0,-100.00,North,2,18.0,23.0,20,0.00,,,0.00,3.000000,,2013-02-28 14:32:00,
2013-02-28 06:42:00,38.0,1.0,-100.00,North,2,18.0,23.0,20,0.00,,,0.00,3.000000,,2013-02-28 14:42:00,
2013-02-28 06:52:00,38.0,1.0,-100.00,North,2,18.0,23.0,20,0.00,,,0.00,3.000000,,2013-02-28 14:52:00,
2013-02-28 07:02:00,38.0,1.0,-100.00,North,2,18.0,23.0,20,0.00,,,0.00,3.000000,,2013-02-28 15:02:00,
2013-02-28 07:11:00,38.0,1.0,-100.00,North,2,18.0,23.0,20,0.00,,,0.00,3.000000,,2013-02-28 15:11:00,
2013-02-28 07:32:00,43.0,0.0,-100.00,North,2,12.0,25.0,16,0.00,,,0.00,61.000000,,2013-02-28 15:32:00,
2013-02-28 08:11:00,43.0,0.0,-100.00,North,2,12.0,25.0,16,0.00,,,0.00,61.000000,,2013-02-28 16:11:00,
2013-02-28 08:42:00,44.0,4.0,-100.00,North,2,10.0,16.0,19,0.00,,,0.00,302.000000,,2013-02-28 16:42:00,
2013-02-28 08:52:00,44.0,4.0,-100.00,North,2,10.0,16.0,19,0.00,,,0.00,302.000000,,2013-02-28 16:52:00,
2013-02-28 09:01:00,44.0,4.0,-100.00,North,2,10.0,16.0,19,0.00,,,0.00,302.000000,,2013-02-28 17:01:00,
2013-02-28 09:11:00,44.0,4.0,-100.00,North,2,10.0,16.0,19,0.00,,,0.00,302.000000,,2013-02-28 17:11:00,
2013-02-28 09:42:00,45.0,6.0,-100.00,North,2,9.0,14.0,20,0.00,,,0.00,544.000000,,2013-02-28 17:42:00,
2013-02-28 09:52:00,45.0,6.0,-100.00,North,2,9.0,14.0,20,0.00,,,0.00,544.000000,,2013-02-28 17:52:00,
2013-02-28 10:01:00,45.0,6.0,-100.00,North,2,9.0,14.0,20,0.00,,,0.00,544.000000,,2013-02-28 18:01:00,
2013-02-28 10:11:00,45.0,6.0,-100.00,North,2,9.0,14.0,20,0.00,,,0.00,544.000000,,2013-02-28 18:11:00,
2013-02-28 10:42:00,48.0,9.0,-100.00,North,1,10.0,15.0,20,0.00,,,0.00,747.000000,,2013-02-28 18:42:00,
2013-02-28 10:52:00,48.0,9.0,-100.00,North,1,10.0,15.0,20,0.00,,,0.00,747.000000,,2013-02-28 18:52:00,
2013-02-28 11:01:00,48.0,9.0,-100.00,North,1,10.0,15.0,20,0.00,,,0.00,747.000000,,2013-02-28 19:01:00,
2013-02-28 11:11:00,48.0,9.0,-100.00,North,1,10.0,15.0,20,0.00,,,0.00,747.000000,,2013-02-28 19:11:00,
2013-02-28 11:42:00,52.0,10.0,-100.00,North,1,8.0,16.0,18,0.00,,,0.00,877.000000,,2013-02-28 19:42:00,
2013-02-28 11:52:00,52.0,10.0,-100.00,North,1,8.0,16.0,18,0.00,,,0.00,877.000000,,2013-02-28 19:52:00,
2013-02-28 12:01:00,52.0,10.0,-100.00,North,1,8.0,16.0,18,0.00,,,0.00,877.000000,,2013-02-28 20:01:00,
2013-02-28 12:11:00,52.0,10.0,-100.00,North,1,8.0,16.0,18,0.00,,,0.00,877.000000,,2013-02-28 20:11:00,
2013-02-28 12:42:00,53.0,11.0,-100.00,North,1,8.0,14.0,18,0.00,,,0.00,941.000000,,2013-02-28 20:42:00,
2013-02-28 12:52:00,53.0,11.0,-100.00,North,1,8.0,14.0,18,0.00,,,0.00,941.000000,,2013-02-28 20:52:00,
2013-02-28 13:01:00,53.0,11.0,-100.00,North,1,8.0,14.0,18,0.00,,,0.00,941.000000,,2013-02-28 21:01:00,
2013-02-28 13:11:00,53.0,11.0,-100.00,North,1,8.0,14.0,18,0.00,,,0.00,941.000000,,2013-02-28 21:11:00,
2013-02-28 13:32:00,54.0,10.0,-100.00,North,1,8.0,15.0,17,0.00,,,0.00,932.000000,,2013-02-28 21:32:00,
2013-02-28 13:42:00,54.0,10.0,-100.00,North,1,8.0,15.0,17,0.00,,,0.00,932.000000,,2013-02-28 21:42:00,
2013-02-28 13:52:00,54.0,10.0,-100.00,North,1,8.0,15.0,17,0.00,,,0.00,932.000000,,2013-02-28 21:52:00,
2013-02-28 14:01:00,54.0,10.0,-100.00,North,1,8.0,15.0,17,0.00,,,0.00,932.000000,,2013-02-28 22:01:00,
2013-02-28 14:11:00,54.0,10.0,-100.00,North,1,8.0,15.0,17,0.00,,,0.00,932.000000,,2013-02-28 22:11:00,
2013-02-28 14:42:00,53.0,11.0,-100.00,North,1,9.0,17.0,18,0.00,,,0.00,848.000000,,2013-02-28 22:42:00,
2013-02-28 14:52:00,53.0,11.0,-100.00,North,1,9.0,17.0,18,0.00,,,0.00,848.000000,,2013-02-28 22:52:00,
2013-02-28 15:01:00,53.0,11.0,-100.00,North,1,9.0,17.0,18,0.00,,,0.00,848.000000,,2013-02-28 23:01:00,
2013-02-28 15:11:00,53.0,11.0,-100.00,North,1,9.0,17.0,18,0.00,,,0.00,848.000000,,2013-02-28 23:11:00,
2013-02-28 15:32:00,54.0,11.0,-100.00,North,1,7.0,17.0,18,0.00,,,0.00,692.000000,,2013-02-28 23:32:00,
2013-02-28 15:42:00,54.0,11.0,-100.00,North,1,7.0,17.0,18,0.00,,,0.00,692.000000,,2013-02-28 23:42:00,
2013-02-28 15:52:00,54.0,11.0,-100.00,North,1,7.0,17.0,18,0.00,,,0.00,692.000000,,2013-02-28 23:52:00,
2013-02-28 16:01:00,54.0,11.0,-100.00,North,1,7.0,17.0,18,0.00,,,0.00,692.000000,,2013-03-01 00:01:00,
2013-02-28 16:11:00,54.0,11.0,-100.00,North,1,7.0,17.0,18,0.00,,,0.00,692.000000,,2013-03-01 00:11:00,
2013-02-28 16:32:00,51.0,10.0,-100.00,North,1,8.0,13.0,19,0.00,,,0.00,484.000000,,2013-03-01 00:32:00,
2013-02-28 16:42:00,51.0,10.0,-100.00,North,1,8.0,13.0,19,0.00,,,0.00,484.000000,,2013-03-01 00:42:00,
2013-02-28 16:52:00,51.0,10.0,-100.00,North,1,8.0,13.0,19,0.00,,,0.00,484.000000,,2013-03-01 00:52:00,
2013-02-28 17:01:00,51.0,10.0,-100.00,North,1,8.0,13.0,19,0.00,,,0.00,484.000000,,2013-03-01 01:01:00,
2013-02-28 17:11:00,51.0,10.0,-100.00,North,1,8.0,13.0,19,0.00,,,0.00,484.000000,,2013-03-01 01:11:00,
2013-02-28 17:42:00,45.0,8.0,-100.00,North,1,10.0,16.0,22,0.00,,,0.00,233.000000,,2013-03-01 01:42:00,
2013-02-28 17:52:00,45.0,8.0,-100.00,North,1,10.0,16.0,22,0.00,,,0.00,233.000000,,2013-03-01 01:52:00,
2013-02-28 18:01:00,45.0,8.0,-100.00,North,1,10.0,16.0,22,0.00,,,0.00,233.000000,,2013-03-01 02:01:00,
2013-02-28 18:11:00,45.0,8.0,-100.00,North,1,10.0,16.0,22,0.00,,,0.00,233.000000,,2013-03-01 02:11:00,
2013-02-28 18:32:00,43.0,9.0,-100.00,North,2,13.0,17.0,24,0.00,,,0.00,16.000000,,2013-03-01 02:32:00,
2013-02-28 18:42:00,43.0,9.0,-100.00,North,2,13.0,17.0,24,0.00,,,0.00,16.000000,,2013-03-01 02:42:00,
2013-02-28 18:52:00,43.0,9.0,-100.00,North,2,13.0,17.0,24,0.00,,,0.00,16.000000,,2013-03-01 02:52:00,
2013-02-28 19:01:00,43.0,9.0,-100.00,North,2,13.0,17.0,24,0.00,,,0.00,16.000000,,2013-03-01 03:01:00,
2013-02-28 19:11:00,43.0,9.0,-100.00,North,2,13.0,17.0,24,0.00,,,0.00,16.000000,,2013-03-01 03:11:00,
2013-02-28 19:32:00,43.0,9.0,-100.00,North,2,15.0,20.0,24,0.00,,,0.00,2.000000,,2013-03-01 03:32:00,
2013-02-28 19:42:00,43.0,9.0,-100.00,North,2,15.0,20.0,24,0.00,,,0.00,2.000000,,2013-03-01 03:42:00,
2013-02-28 19:52:00,43.0,9.0,-100.00,North,2,15.0,20.0,24,0.00,,,0.00,2.000000,,2013-03-01 03:52:00,
2013-02-28 20:01:00,43.0,9.0,-100.00,North,2,15.0,20.0,24,0.00,,,0.00,2.000000,,2013-03-01 04:01:00,
2013-02-28 20:11:00,43.0,9.0,-100.00,North,2,15.0,20.0,24,0.00,,,0.00,2.000000,,2013-03-01 04:11:00,
2013-02-28 20:42:00,43.0,10.0,-100.00,North,2,13.0,20.0,25,0.00,,,0.00,2.000000,,2013-03-01 04:42:00,
2013-02-28 20:52:00,43.0,10.0,-100.00,North,2,13.0,20.0,25,0.00,,,0.00,2.000000,,2013-03-01 04:52:00,
2013-02-28 21:01:00,43.0,10.0,-100.00,North,2,13.0,20.0,25,0.00,,,0.00,2.000000,,2013-03-01 05:01:00,
2013-02-28 21:11:00,43.0,10.0,-100.00,North,2,13.0,20.0,25,0.00,,,0.00,2.000000,,2013-03-01 05:11:00,
2013-02-28 21:33:00,44.0,10.0,-100.00,North,2,13.0,19.0,25,0.00,,,0.00,2.000000,,2013-03-01 05:33:00,
2013-02-28 21:42:00,44.0,10.0,-100.00,North,2,13.0,19.0,25,0.00,,,0.00,2.000000,,2013-03-01 05:42:00,
2013-02-28 21:52:00,44.0,10.0,-100.00,North,2,13.0,19.0,25,0.00,,,0.00,2.000000,,2013-03-01 05:52:00,
2013-02-28 22:02:00,44.0,10.0,-100.00,North,2,13.0,19.0,25,0.00,,,0.00,2.000000,,2013-03-01 06:02:00,
2013-02-28 22:11:00,44.0,10.0,-100.00,North,2,13.0,19.0,25,0.00,,,0.00,2.000000,,2013-03-01 06:11:00,
2013-02-28 22:32:00,43.0,14.0,-100.00,North,2,12.0,20.0,30,0.00,,,0.00,2.000000,,2013-03-01 06:32:00,
2013-02-28 22:42:00,43.0,14.0,-100.00,North,2,12.0,20.0,30,0.00,,,0.00,2.000000,,2013-03-01 06:42:00,
2013-02-28 22:52:00,43.0,14.0,-100.00,North,2,12.0,20.0,30,0.00,,,0.00,2.000000,,2013-03-01 06:52:00,
2013-02-28 23:01:00,43.0,14.0,-100.00,North,2,12.0,20.0,30,0.00,,,0.00,2.000000,,2013-03-01 07:01:00,
2013-02-28 23:11:00,43.0,14.0,-100.00,North,2,12.0,20.0,30,0.00,,,0.00,2.000000,,2013-03-01 07:11:00,
2013-02-28 23:32:00,43.0,14.0,-100.00,North,2,19.0,24.0,31,0.00,,,0.00,2.000000,,2013-03-01 07:32:00,
2013-02-28 23:42:00,43.0,14.0,-100.00,North,2,19.0,24.0,31,0.00,,,0.00,2.000000,,2013-03-01 07:42:00,
2013-02-28 23:52:00,43.0,14.0,-100.00,North,2,19.0,24.0,31,0.00,,,0.00,2.000000,,2013-03-01 07:52:00,